Time;durP1;ratioP1;P1;durP2;ratioP2;P2;SDS_P1;SDS_P2;PMS_P1;PMS_P2;Temp;Humidity;BMP_temperature;BMP_pressure;BME280_temperature;BME280_humidity;BME280_pressure;Samples;Min_cycle;Max_cycle;Signal;HPM_P1;HPM_P2
2022/07/30 00:02:23;;;;;;;4.22;3.40;;;18.00;99.90;;;;;;5072309;28;20068;-87
2022/07/30 00:04:49;;;;;;;3.42;3.13;;;18.00;99.90;;;;;;5071880;28;20021;-86
2022/07/30 00:07:15;;;;;;;3.08;2.55;;;17.90;99.90;;;;;;5071676;28;20028;-84
2022/07/30 00:09:40;;;;;;;4.57;2.53;;;17.90;99.90;;;;;;5071845;28;20039;-86
2022/07/30 00:12:07;;;;;;;3.47;2.50;;;18.00;99.90;;;;;;5072194;28;20025;-87
2022/07/30 00:14:34;;;;;;;3.67;2.30;;;18.10;99.90;;;;;;5075093;28;20017;-83
2022/07/30 00:17:00;;;;;;;2.40;2.10;;;18.10;99.90;;;;;;5075550;28;20212;-84
2022/07/30 00:19:26;;;;;;;3.67;1.30;;;18.10;99.90;;;;;;5071287;28;20033;-84
2022/07/30 00:21:53;;;;;;;1.50;1.40;;;18.10;99.90;;;;;;5071499;28;20083;-86
2022/07/30 00:24:20;;;;;;;1.50;1.40;;;18.10;99.90;;;;;;5070331;28;20025;-85
2022/07/30 00:26:46;;;;;;;1.45;1.35;;;18.00;99.90;;;;;;5070655;28;20032;-84
2022/07/30 00:29:11;;;;;;;1.67;1.15;;;18.00;99.90;;;;;;5070199;28;20025;-84
2022/07/30 00:31:37;;;;;;;1.15;1.05;;;18.00;99.90;;;;;;5070628;28;20025;-84
2022/07/30 00:34:03;;;;;;;1.40;1.30;;;18.00;99.90;;;;;;5071708;28;20425;-85
2022/07/30 00:36:29;;;;;;;1.55;1.30;;;18.00;99.90;;;;;;5073327;28;20036;-86
2022/07/30 00:38:55;;;;;;;1.25;1.10;;;17.90;99.90;;;;;;5072564;28;20024;-86
2022/07/30 00:41:22;;;;;;;1.30;1.20;;;17.90;99.90;;;;;;5070566;28;20025;-86
2022/07/30 00:43:47;;;;;;;1.15;1.05;;;18.00;99.90;;;;;;5068426;28;20025;-86
2022/07/30 00:46:13;;;;;;;1.10;1.10;;;18.00;99.90;;;;;;5069032;28;20033;-86
2022/07/30 00:48:40;;;;;;;0.85;0.75;;;18.00;99.90;;;;;;5070432;28;20017;-84
2022/07/30 00:51:06;;;;;;;1.10;0.90;;;17.90;99.90;;;;;;5071501;28;20017;-86
2022/07/30 00:53:32;;;;;;;1.23;1.15;;;17.90;99.90;;;;;;5069546;28;20055;-84
2022/07/30 00:55:58;;;;;;;4.97;1.40;;;17.90;99.90;;;;;;5069926;28;20040;-85
2022/07/30 00:58:24;;;;;;;1.13;1.00;;;17.90;99.90;;;;;;5068384;28;20040;-84
2022/07/30 01:00:50;;;;;;;1.10;1.00;;;18.00;99.90;;;;;;5068520;28;20029;-85
2022/07/30 01:03:15;;;;;;;1.75;1.10;;;17.90;99.90;;;;;;5067893;28;20021;-85
2022/07/30 01:05:41;;;;;;;0.90;0.90;;;17.90;99.90;;;;;;5067799;28;20035;-86
2022/07/30 01:08:07;;;;;;;1.77;1.00;;;17.90;99.90;;;;;;5068180;28;20575;-85
2022/07/30 01:10:32;;;;;;;0.90;0.90;;;17.80;99.90;;;;;;5070335;28;20106;-86
2022/07/30 01:13:00;;;;;;;1.13;1.02;;;17.80;99.90;;;;;;5068219;28;20035;-85
2022/07/30 01:15:26;;;;;;;1.30;1.10;;;17.80;99.90;;;;;;5070135;28;20151;-86
2022/07/30 01:17:55;;;;;;;0.95;0.95;;;17.80;99.90;;;;;;5069010;28;20032;-85
2022/07/30 01:20:32;;;;;;;1.23;1.17;;;17.80;99.90;;;;;;5069391;28;20033;-86
2022/07/30 01:23:26;;;;;;;1.40;1.30;;;17.80;99.90;;;;;;5069185;28;20017;-85
2022/07/30 01:26:03;;;;;;;1.50;1.40;;;17.80;99.90;;;;;;5056272;28;20049;-83
2022/07/30 01:28:34;;;;;;;1.00;1.00;;;17.80;99.90;;;;;;5056345;28;20363;-83
2022/07/30 01:31:02;;;;;;;1.27;1.17;;;17.80;99.90;;;;;;5057422;28;20032;-85
2022/07/30 01:33:30;;;;;;;1.42;1.33;;;17.90;99.90;;;;;;5058546;28;20088;-84
2022/07/30 01:35:57;;;;;;;1.30;1.20;;;17.90;99.90;;;;;;5059148;28;20547;-83
2022/07/30 01:38:26;;;;;;;1.40;1.30;;;17.90;99.90;;;;;;5059328;28;20481;-85
2022/07/30 01:40:53;;;;;;;1.00;0.90;;;17.80;99.90;;;;;;5071515;28;20033;-85
2022/07/30 01:43:21;;;;;;;1.33;1.23;;;17.90;99.90;;;;;;5076069;28;20052;-87
2022/07/30 01:45:50;;;;;;;1.33;1.25;;;17.90;99.90;;;;;;5064465;28;20033;-85
2022/07/30 01:48:18;;;;;;;1.85;1.75;;;17.90;99.90;;;;;;5062974;28;20108;-85
2022/07/30 01:50:47;;;;;;;1.48;1.38;;;17.90;99.90;;;;;;5076029;28;20002;-89
2022/07/30 01:53:25;;;;;;;1.88;1.30;;;17.90;99.90;;;;;;5072730;28;20044;-86
2022/07/30 01:55:53;;;;;;;1.85;1.23;;;17.90;99.90;;;;;;5050323;28;20370;-86
2022/07/30 01:58:21;;;;;;;1.40;1.30;;;17.90;99.90;;;;;;5063550;28;20021;-86
2022/07/30 02:00:49;;;;;;;1.40;1.30;;;18.00;99.90;;;;;;5061164;28;20036;-86
2022/07/30 02:03:15;;;;;;;1.40;1.30;;;18.00;99.90;;;;;;5062204;28;20025;-86
2022/07/30 02:05:44;;;;;;;1.60;1.35;;;18.00;99.90;;;;;;5060648;28;20025;-85
2022/07/30 02:08:20;;;;;;;1.88;1.33;;;17.90;99.90;;;;;;5068547;28;20025;-87
2022/07/30 02:11:01;;;;;;;1.48;1.38;;;17.90;99.90;;;;;;5075262;28;20112;-84
2022/07/30 02:13:29;;;;;;;2.85;1.80;;;18.00;99.90;;;;;;5074067;28;20025;-85
2022/07/30 02:16:23;;;;;;;2.10;1.58;;;18.00;99.90;;;;;;5075527;28;20017;-86
2022/07/30 02:19:16;;;;;;;1.75;1.65;;;18.00;99.90;;;;;;5069911;28;20039;-85
2022/07/30 02:21:46;;;;;;;1.60;1.50;;;18.00;99.90;;;;;;5075064;28;20021;-88
2022/07/30 02:24:15;;;;;;;1.45;1.38;;;18.10;99.90;;;;;;5074712;28;20096;-87
2022/07/30 02:26:45;;;;;;;1.58;1.48;;;18.10;99.90;;;;;;5075615;28;20013;-85
2022/07/30 02:29:11;;;;;;;1.65;1.55;;;18.10;99.90;;;;;;5066148;28;20031;-85
2022/07/30 02:31:39;;;;;;;1.70;1.55;;;18.00;99.90;;;;;;5065178;28;20461;-86
2022/07/30 02:34:07;;;;;;;4.00;2.00;;;18.10;99.90;;;;;;5060493;28;20025;-84
2022/07/30 02:36:36;;;;;;;2.15;1.95;;;18.10;99.90;;;;;;5058500;28;20159;-85
2022/07/30 02:39:03;;;;;;;2.42;1.60;;;18.00;99.90;;;;;;5058034;28;20025;-86
2022/07/30 02:41:30;;;;;;;2.22;1.77;;;18.00;99.90;;;;;;5063334;28;20024;-88
2022/07/30 02:43:57;;;;;;;2.78;1.83;;;18.00;99.90;;;;;;5074532;28;20037;-88
2022/07/30 02:46:24;;;;;;;1.75;1.50;;;17.90;99.90;;;;;;5067550;28;20029;-83
2022/07/30 02:48:52;;;;;;;1.95;1.58;;;17.90;99.90;;;;;;5058763;28;20021;-85
2022/07/30 02:51:20;;;;;;;3.15;1.75;;;17.80;99.90;;;;;;5058192;28;20052;-85
2022/07/30 02:53:48;;;;;;;2.00;1.77;;;17.80;99.90;;;;;;5058467;28;20085;-84
2022/07/30 02:56:15;;;;;;;2.22;1.67;;;17.80;99.90;;;;;;5058540;28;20120;-85
2022/07/30 02:58:44;;;;;;;2.30;1.65;;;17.80;99.90;;;;;;5058513;28;20033;-84
2022/07/30 03:01:13;;;;;;;3.90;1.67;;;17.80;99.90;;;;;;5058634;28;20104;-85
2022/07/30 03:03:41;;;;;;;1.95;1.85;;;17.80;99.90;;;;;;5058029;28;20044;-84
2022/07/30 03:06:08;;;;;;;1.85;1.70;;;17.80;99.90;;;;;;5057543;28;20071;-86
2022/07/30 03:08:35;;;;;;;2.83;1.88;;;17.80;99.90;;;;;;5059728;28;20195;-85
2022/07/30 03:11:02;;;;;;;2.47;1.80;;;17.80;99.90;;;;;;5059315;28;20065;-85
2022/07/30 03:13:28;;;;;;;2.17;2.08;;;17.90;99.90;;;;;;5058840;28;20397;-83
2022/07/30 03:15:57;;;;;;;3.05;2.03;;;17.90;99.90;;;;;;5057956;28;20051;-85
2022/07/30 03:18:24;;;;;;;3.88;2.08;;;17.90;99.90;;;;;;5051203;28;20474;-85
2022/07/30 03:20:55;;;;;;;2.92;1.90;;;17.90;99.90;;;;;;5057692;28;20104;-83
2022/07/30 03:23:22;;;;;;;1.90;1.80;;;17.90;99.90;;;;;;5057589;28;20032;-85
2022/07/30 03:25:54;;;;;;;1.95;1.80;;;17.90;99.90;;;;;;5057833;28;20025;-84
2022/07/30 03:28:22;;;;;;;3.60;1.85;;;17.90;99.90;;;;;;5059491;28;20017;-85
2022/07/30 03:30:48;;;;;;;3.72;1.45;;;18.00;99.90;;;;;;5062513;28;20064;-84
2022/07/30 03:33:15;;;;;;;2.90;2.25;;;18.00;99.90;;;;;;5062357;28;20098;-84
2022/07/30 03:35:42;;;;;;;2.83;2.20;;;18.00;99.90;;;;;;5061298;28;20063;-84
2022/07/30 03:38:13;;;;;;;1.85;1.75;;;17.90;99.90;;;;;;5061148;28;20068;-84
2022/07/30 03:40:41;;;;;;;3.53;2.15;;;18.00;99.90;;;;;;5062749;28;20021;-84
2022/07/30 03:43:09;;;;;;;2.28;1.83;;;18.00;99.90;;;;;;5061670;28;20420;-84
2022/07/30 03:45:41;;;;;;;2.20;1.80;;;17.90;99.90;;;;;;5061389;28;20553;-84
2022/07/30 03:48:08;;;;;;;2.30;1.88;;;17.90;99.90;;;;;;5056731;28;20035;-83
2022/07/30 03:50:40;;;;;;;2.55;2.10;;;17.90;99.90;;;;;;5059556;28;20029;-82
2022/07/30 03:53:07;;;;;;;1.48;1.48;;;17.90;99.90;;;;;;5075734;28;20024;-84
2022/07/30 03:55:34;;;;;;;4.47;2.42;;;17.90;99.90;;;;;;5075554;28;20039;-83
2022/07/30 03:58:01;;;;;;;2.95;2.10;;;17.90;99.90;;;;;;5077086;28;20044;-87
2022/07/30 04:00:27;;;;;;;2.42;2.22;;;18.00;99.90;;;;;;5071666;28;20036;-85
2022/07/30 04:02:53;;;;;;;2.20;2.10;;;17.90;99.90;;;;;;5078223;28;20039;-87
2022/07/30 04:05:20;;;;;;;3.70;2.15;;;17.90;99.90;;;;;;5078950;28;20013;-84
2022/07/30 04:07:45;;;;;;;2.10;1.90;;;17.90;99.90;;;;;;5077369;28;20021;-88
2022/07/30 04:10:12;;;;;;;4.32;1.92;;;17.90;99.90;;;;;;5077776;28;20075;-87
2022/07/30 04:12:38;;;;;;;2.50;2.30;;;17.90;99.90;;;;;;5077090;28;20040;-87
2022/07/30 04:15:04;;;;;;;3.17;2.03;;;17.90;99.90;;;;;;5060199;28;20087;-82
2022/07/30 04:17:42;;;;;;;2.47;2.10;;;17.90;99.90;;;;;;5059403;28;20174;-82
2022/07/30 04:20:11;;;;;;;3.22;1.95;;;17.90;99.90;;;;;;5041102;28;20029;-85
2022/07/30 04:22:38;;;;;;;2.17;2.08;;;18.00;99.90;;;;;;5068776;28;20037;-86
2022/07/30 04:25:05;;;;;;;2.55;2.35;;;18.00;99.90;;;;;;5063178;28;20489;-85
2022/07/30 04:27:33;;;;;;;4.57;2.60;;;18.00;99.90;;;;;;5060160;28;20028;-82
2022/07/30 04:29:59;;;;;;;2.53;2.20;;;18.10;99.90;;;;;;5062837;28;20067;-82
2022/07/30 04:32:26;;;;;;;5.97;2.38;;;18.20;99.90;;;;;;5061332;28;20564;-82
2022/07/30 04:34:54;;;;;;;2.92;2.42;;;18.20;99.90;;;;;;5062328;28;20094;-82
2022/07/30 04:37:22;;;;;;;3.58;2.42;;;18.30;99.90;;;;;;5060720;28;20025;-82
2022/07/30 04:39:50;;;;;;;4.53;2.40;;;18.30;99.90;;;;;;5060504;28;20040;-82
2022/07/30 04:42:16;;;;;;;3.22;2.45;;;18.40;99.90;;;;;;5059129;28;20082;-83
2022/07/30 04:44:42;;;;;;;2.60;2.22;;;18.40;99.90;;;;;;5058086;28;20029;-84
2022/07/30 04:47:08;;;;;;;7.05;2.85;;;18.50;99.90;;;;;;5058257;28;20029;-83
2022/07/30 04:49:34;;;;;;;2.10;2.00;;;18.50;99.90;;;;;;5059569;28;20032;-84
2022/07/30 04:52:01;;;;;;;2.28;1.90;;;18.50;99.90;;;;;;5057640;28;20025;-84
2022/07/30 04:54:33;;;;;;;5.10;2.83;;;18.60;99.90;;;;;;5059700;28;20055;-84
2022/07/30 04:56:59;;;;;;;2.85;2.15;;;18.70;99.90;;;;;;5058424;28;20036;-84
2022/07/30 04:59:25;;;;;;;3.40;2.30;;;18.70;99.90;;;;;;5059433;28;20107;-83
2022/07/30 05:01:52;;;;;;;1.80;1.70;;;18.80;99.90;;;;;;5057946;28;20040;-84
2022/07/30 05:04:19;;;;;;;3.42;2.38;;;18.80;99.70;;;;;;5058220;28;20033;-84
2022/07/30 05:06:46;;;;;;;2.20;2.00;;;18.90;99.50;;;;;;5059213;28;20032;-85
2022/07/30 05:09:14;;;;;;;3.47;2.42;;;19.00;99.20;;;;;;5057803;28;20060;-84
2022/07/30 05:11:40;;;;;;;6.22;2.50;;;19.10;98.80;;;;;;5059196;28;20044;-84
2022/07/30 05:14:06;;;;;;;2.75;2.50;;;19.10;98.30;;;;;;5057984;28;20033;-84
2022/07/30 05:16:33;;;;;;;3.22;2.30;;;19.20;98.30;;;;;;5059163;28;20025;-85
2022/07/30 05:18:59;;;;;;;3.15;2.08;;;19.30;98.20;;;;;;5058164;28;20048;-85
2022/07/30 05:21:25;;;;;;;2.40;2.10;;;19.30;97.80;;;;;;5057649;28;20047;-85
2022/07/30 05:23:51;;;;;;;3.15;2.47;;;19.50;97.20;;;;;;5070769;28;20032;-85
2022/07/30 05:26:20;;;;;;;2.42;1.90;;;19.50;96.70;;;;;;5076576;28;20029;-86
2022/07/30 05:28:46;;;;;;;4.82;2.60;;;19.40;96.90;;;;;;5076228;28;20096;-83
2022/07/30 05:31:11;;;;;;;3.35;2.05;;;19.30;97.00;;;;;;5073608;28;20040;-85
2022/07/30 05:33:37;;;;;;;5.70;2.30;;;19.20;97.00;;;;;;5072276;28;20017;-86
2022/07/30 05:36:03;;;;;;;1.90;1.80;;;19.20;97.00;;;;;;5076340;28;20088;-88
2022/07/30 05:38:29;;;;;;;3.17;2.22;;;19.10;97.20;;;;;;5075284;28;20152;-87
2022/07/30 05:40:54;;;;;;;2.60;1.88;;;19.20;97.10;;;;;;5070401;28;20092;-87
2022/07/30 05:43:20;;;;;;;2.40;2.20;;;19.20;96.60;;;;;;5069914;28;20033;-87
2022/07/30 05:45:46;;;;;;;4.00;2.00;;;19.30;96.70;;;;;;5068817;28;20204;-87
2022/07/30 05:48:11;;;;;;;3.70;2.15;;;19.40;96.50;;;;;;5063808;28;20092;-85
2022/07/30 05:50:37;;;;;;;2.20;1.98;;;19.50;96.40;;;;;;5044160;28;20025;-86
2022/07/30 05:53:03;;;;;;;3.25;2.25;;;19.50;96.10;;;;;;5044777;28;20079;-86
2022/07/30 05:55:28;;;;;;;3.33;2.17;;;19.50;95.70;;;;;;5043285;28;20032;-84
2022/07/30 05:57:54;;;;;;;4.50;2.25;;;19.50;95.60;;;;;;5038383;28;20427;-85
2022/07/30 06:00:20;;;;;;;3.40;2.00;;;19.40;95.80;;;;;;5041839;28;20036;-85
2022/07/30 06:02:45;;;;;;;2.70;2.50;;;19.30;95.90;;;;;;5038868;28;20025;-85
2022/07/30 06:05:11;;;;;;;2.65;2.05;;;19.30;96.10;;;;;;5040520;28;20120;-85
2022/07/30 06:07:36;;;;;;;7.43;2.47;;;19.30;96.20;;;;;;5045327;28;20052;-86
2022/07/30 06:10:03;;;;;;;2.60;2.38;;;19.30;95.80;;;;;;5046919;28;20080;-85
2022/07/30 06:12:29;;;;;;;2.92;2.30;;;19.40;95.60;;;;;;5051685;28;20096;-88
2022/07/30 06:14:58;;;;;;;5.78;2.95;;;19.50;95.30;;;;;;5056682;28;20021;-88
2022/07/30 06:17:24;;;;;;;4.32;2.63;;;19.60;94.80;;;;;;5062157;28;20032;-87
2022/07/30 06:19:50;;;;;;;3.08;2.78;;;19.70;94.60;;;;;;5076185;28;20028;-88
2022/07/30 06:22:16;;;;;;;5.35;2.88;;;19.80;94.40;;;;;;5075927;28;20047;-88
2022/07/30 06:24:42;;;;;;;4.57;2.45;;;20.00;93.80;;;;;;5077097;28;20028;-88
2022/07/30 06:27:08;;;;;;;2.80;2.58;;;20.20;93.50;;;;;;5075540;28;20009;-86
2022/07/30 06:29:33;;;;;;;7.45;2.90;;;20.40;92.70;;;;;;5076853;28;20009;-87
2022/07/30 06:31:59;;;;;;;3.42;2.58;;;20.50;92.30;;;;;;5075690;28;20043;-85
2022/07/30 06:34:25;;;;;;;4.10;2.47;;;20.40;92.00;;;;;;5067646;28;20028;-85
2022/07/30 06:36:50;;;;;;;5.82;2.72;;;20.30;92.20;;;;;;5065938;28;20028;-86
2022/07/30 06:39:16;;;;;;;3.55;2.92;;;20.20;92.20;;;;;;5063905;28;20092;-87
2022/07/30 06:41:42;;;;;;;7.03;2.72;;;20.00;92.80;;;;;;5066457;28;20097;-87
2022/07/30 06:44:07;;;;;;;9.18;2.92;;;19.80;93.50;;;;;;5065401;28;20036;-86
2022/07/30 06:46:33;;;;;;;5.20;3.15;;;19.70;93.40;;;;;;5064773;28;20024;-87
2022/07/30 06:48:59;;;;;;;3.10;2.55;;;19.60;93.80;;;;;;5065681;28;20045;-85
2022/07/30 06:51:25;;;;;;;5.20;3.00;;;19.60;94.00;;;;;;5064207;28;20310;-87
2022/07/30 06:53:50;;;;;;;4.22;2.80;;;19.70;94.00;;;;;;5067327;28;20029;-86
2022/07/30 06:56:16;;;;;;;3.72;3.33;;;19.70;93.70;;;;;;5065835;28;20036;-87
2022/07/30 06:58:42;;;;;;;3.42;3.13;;;19.70;93.50;;;;;;5065950;28;20081;-87
2022/07/30 07:01:08;;;;;;;5.45;3.47;;;19.70;93.70;;;;;;5065481;28;20017;-87
2022/07/30 07:03:33;;;;;;;5.03;3.22;;;19.50;94.10;;;;;;5064301;28;20029;-87
2022/07/30 07:05:59;;;;;;;3.92;3.13;;;19.60;94.00;;;;;;5068146;28;20025;-86
2022/07/30 07:08:25;;;;;;;4.15;3.65;;;20.50;94.30;;;;;;5069394;28;20044;-87
2022/07/30 07:10:51;;;;;;;5.93;3.75;;;22.20;89.60;;;;;;5069742;28;20028;-87
2022/07/30 07:13:16;;;;;;;3.05;2.80;;;22.60;85.10;;;;;;5068088;28;20037;-88
2022/07/30 07:15:42;;;;;;;5.93;3.65;;;22.40;84.90;;;;;;5065551;28;20508;-88
2022/07/30 07:18:08;;;;;;;6.57;3.75;;;22.50;83.20;;;;;;5067196;28;20060;-86
2022/07/30 07:20:34;;;;;;;4.68;3.63;;;22.30;83.20;;;;;;5067716;28;20035;-86
2022/07/30 07:23:00;;;;;;;3.78;3.47;;;22.10;83.90;;;;;;5066339;28;20052;-85
2022/07/30 07:25:26;;;;;;;10.60;4.35;;;21.90;84.40;;;;;;5066650;28;20021;-86
2022/07/30 07:27:52;;;;;;;5.57;3.67;;;21.80;84.30;;;;;;5065834;28;20028;-86
2022/07/30 07:30:17;;;;;;;6.15;3.35;;;21.70;84.90;;;;;;5066450;28;20044;-87
2022/07/30 07:32:43;;;;;;;7.60;4.35;;;21.60;85.90;;;;;;5067592;28;20032;-86
2022/07/30 07:35:09;;;;;;;7.78;4.57;;;21.60;84.70;;;;;;5067769;28;20089;-86
2022/07/30 07:37:34;;;;;;;6.90;4.22;;;21.50;85.40;;;;;;5066416;28;20032;-86
2022/07/30 07:40:00;;;;;;;4.70;3.97;;;21.50;85.30;;;;;;5066652;28;20104;-86
2022/07/30 07:42:26;;;;;;;4.95;4.18;;;21.50;86.10;;;;;;5066863;28;20025;-87
2022/07/30 07:44:51;;;;;;;7.50;3.75;;;21.60;85.60;;;;;;5067106;28;20060;-86
2022/07/30 07:47:17;;;;;;;4.03;3.60;;;21.80;85.40;;;;;;5067382;28;20025;-87
2022/07/30 07:49:43;;;;;;;4.72;3.95;;;21.70;84.80;;;;;;5067781;28;20029;-88
2022/07/30 07:52:08;;;;;;;6.63;3.53;;;21.70;85.30;;;;;;5068141;28;20029;-86
2022/07/30 07:54:34;;;;;;;7.78;4.32;;;21.80;85.20;;;;;;5069083;28;20025;-87
2022/07/30 07:57:00;;;;;;;4.22;3.58;;;22.00;84.40;;;;;;5069810;28;20029;-86
2022/07/30 07:59:26;;;;;;;4.70;3.75;;;21.90;84.30;;;;;;5067459;28;20083;-87
2022/07/30 08:01:51;;;;;;;7.05;4.78;;;21.80;85.90;;;;;;5067097;28;20362;-86
2022/07/30 08:04:17;;;;;;;8.35;5.40;;;21.90;84.60;;;;;;5068509;28;20117;-86
2022/07/30 08:06:43;;;;;;;5.03;4.28;;;22.00;83.10;;;;;;5069240;28;20089;-85
2022/07/30 08:09:09;;;;;;;11.18;4.65;;;22.10;82.40;;;;;;5067211;28;20032;-85
2022/07/30 08:11:35;;;;;;;6.18;4.32;;;22.20;82.20;;;;;;5067870;28;20127;-86
2022/07/30 08:14:01;;;;;;;4.55;3.90;;;22.30;81.20;;;;;;5069899;28;20048;-86
2022/07/30 08:16:27;;;;;;;4.50;3.92;;;22.30;81.10;;;;;;5068367;28;20040;-85
2022/07/30 08:18:53;;;;;;;7.90;4.80;;;22.40;80.70;;;;;;5059666;28;20035;-84
2022/07/30 08:21:19;;;;;;;5.43;3.33;;;22.30;80.40;;;;;;5067952;28;20037;-84
2022/07/30 08:23:45;;;;;;;9.18;4.40;;;22.30;81.10;;;;;;5070432;28;20033;-85
2022/07/30 08:26:11;;;;;;;4.57;4.13;;;22.40;79.70;;;;;;5072437;28;20021;-86
2022/07/30 08:28:36;;;;;;;5.78;3.83;;;22.40;79.10;;;;;;5071507;28;20033;-84
2022/07/30 08:31:03;;;;;;;7.45;4.20;;;22.50;77.60;;;;;;5075546;28;20017;-84
2022/07/30 08:33:28;;;;;;;4.88;3.03;;;22.60;77.10;;;;;;5077667;28;20017;-88
2022/07/30 08:35:54;;;;;;;5.55;3.47;;;22.80;76.20;;;;;;5078794;28;20040;-86
2022/07/30 08:38:20;;;;;;;6.35;4.38;;;22.90;75.70;;;;;;5077708;28;20029;-87
2022/07/30 08:40:46;;;;;;;7.95;3.40;;;23.00;74.60;;;;;;5063868;28;20100;-85
2022/07/30 08:43:11;;;;;;;9.57;3.78;;;23.00;73.50;;;;;;5057176;28;20037;-86
2022/07/30 08:45:38;;;;;;;6.65;3.50;;;23.00;74.90;;;;;;5066962;28;20112;-87
2022/07/30 08:48:09;;;;;;;4.40;3.30;;;22.90;73.70;;;;;;5068676;28;20021;-87
2022/07/30 08:50:36;;;;;;;4.47;3.80;;;22.90;74.70;;;;;;5069438;28;20039;-87
2022/07/30 08:53:02;;;;;;;4.90;3.22;;;22.90;74.60;;;;;;5069804;28;20029;-87
2022/07/30 08:55:28;;;;;;;3.10;2.80;;;23.00;74.20;;;;;;5070154;28;20092;-85
2022/07/30 08:57:54;;;;;;;6.35;3.72;;;23.20;73.40;;;;;;5068411;28;20029;-87
2022/07/30 09:00:20;;;;;;;3.92;2.78;;;23.60;70.70;;;;;;5068518;28;20033;-85
2022/07/30 09:02:46;;;;;;;3.90;2.80;;;23.80;69.90;;;;;;5069364;28;20067;-86
2022/07/30 09:05:12;;;;;;;4.38;2.97;;;24.00;69.40;;;;;;5076319;28;20036;-86
2022/07/30 09:07:38;;;;;;;6.82;2.42;;;24.10;67.30;;;;;;5076592;28;20043;-86
2022/07/30 09:10:05;;;;;;;4.03;2.75;;;24.20;67.30;;;;;;5051567;28;20418;-85
2022/07/30 09:12:40;;;;;;;6.57;2.78;;;24.30;67.00;;;;;;5052396;28;20032;-85
2022/07/30 09:15:07;;;;;;;4.75;3.05;;;24.50;64.70;;;;;;5057714;28;20025;-88
2022/07/30 09:17:49;;;;;;;3.17;2.92;;;24.60;64.40;;;;;;5054704;28;20443;-86
2022/07/30 09:20:16;;;;;;;2.78;2.40;;;24.60;64.60;;;;;;5070726;28;20052;-86
2022/07/30 09:22:54;;;;;;;5.20;2.63;;;24.30;65.30;;;;;;5072293;28;20072;-86
2022/07/30 09:25:39;;;;;;;4.72;2.38;;;24.10;66.50;;;;;;5071728;28;20147;-85
2022/07/30 09:28:08;;;;;;;3.55;2.80;;;24.30;65.20;;;;;;5075198;28;20017;-88
2022/07/30 09:30:54;;;;;;;6.80;2.67;;;24.40;64.50;;;;;;5064925;28;20033;-85
2022/07/30 09:33:42;;;;;;;6.60;2.60;;;24.60;63.50;;;;;;5063153;28;20398;-85
2022/07/30 09:36:10;;;;;;;4.43;2.40;;;24.40;63.90;;;;;;5065801;28;20059;-84
2022/07/30 09:38:48;;;;;;;3.45;2.35;;;24.30;63.40;;;;;;5065562;28;20025;-86
2022/07/30 09:41:15;;;;;;;4.07;2.60;;;24.40;62.70;;;;;;5065674;28;20025;-86
2022/07/30 09:43:47;;;;;;;3.15;2.60;;;24.80;62.00;;;;;;5066426;28;20033;-84
2022/07/30 09:46:13;;;;;;;4.65;2.40;;;25.00;60.00;;;;;;5066670;28;20040;-86
2022/07/30 09:48:39;;;;;;;8.18;2.67;;;25.20;59.80;;;;;;5066766;28;20025;-85
2022/07/30 09:51:08;;;;;;;2.80;2.20;;;25.30;58.90;;;;;;5065625;28;20032;-86
2022/07/30 09:53:34;;;;;;;5.00;2.28;;;25.30;58.50;;;;;;5067224;28;20033;-85
2022/07/30 09:56:00;;;;;;;5.55;2.90;;;25.30;58.70;;;;;;5068280;28;20021;-85
2022/07/30 09:58:39;;;;;;;5.55;2.50;;;25.40;58.80;;;;;;5067406;28;20119;-86
2022/07/30 10:01:05;;;;;;;5.47;2.83;;;25.60;57.90;;;;;;5066793;28;20036;-86
2022/07/30 10:03:31;;;;;;;3.25;2.40;;;25.50;58.20;;;;;;5067235;28;20029;-86
2022/07/30 10:05:59;;;;;;;3.65;2.33;;;25.60;57.90;;;;;;5067307;28;20028;-86
2022/07/30 10:08:49;;;;;;;2.40;2.20;;;25.70;56.80;;;;;;5066999;28;20045;-86
2022/07/30 10:11:23;;;;;;;3.67;2.38;;;25.90;56.80;;;;;;5066748;28;20363;-85
2022/07/30 10:13:52;;;;;;;5.03;2.40;;;25.90;56.10;;;;;;5064780;28;20025;-86
2022/07/30 10:16:19;;;;;;;3.03;2.53;;;25.90;56.70;;;;;;5065561;28;20017;-86
2022/07/30 10:18:45;;;;;;;3.33;2.40;;;25.80;56.40;;;;;;5069260;28;20028;-85
2022/07/30 10:21:12;;;;;;;3.15;2.38;;;25.90;55.10;;;;;;5072095;28;20041;-86
2022/07/30 10:23:39;;;;;;;2.13;1.92;;;26.10;53.20;;;;;;5076448;28;20049;-86
2022/07/30 10:26:07;;;;;;;3.10;2.13;;;26.20;53.10;;;;;;5075568;28;20025;-86
2022/07/30 10:28:33;;;;;;;2.88;2.17;;;26.40;53.40;;;;;;5075696;28;20016;-87
2022/07/30 10:30:59;;;;;;;3.80;1.70;;;26.50;52.60;;;;;;5076023;28;20017;-88
2022/07/30 10:33:28;;;;;;;4.32;1.90;;;26.50;51.40;;;;;;5076822;28;20017;-88
2022/07/30 10:35:55;;;;;;;2.13;1.75;;;26.60;50.60;;;;;;5077023;28;20013;-87
2022/07/30 10:38:26;;;;;;;3.85;1.90;;;26.30;50.20;;;;;;5075498;28;20028;-87
2022/07/30 10:41:09;;;;;;;2.20;1.63;;;26.00;51.20;;;;;;5075743;28;20033;-86
2022/07/30 10:43:53;;;;;;;3.55;2.17;;;25.60;52.80;;;;;;5073654;28;20060;-84
2022/07/30 10:46:42;;;;;;;3.95;1.85;;;25.40;54.10;;;;;;5073430;28;20017;-85
2022/07/30 10:49:13;;;;;;;2.15;1.63;;;25.60;54.00;;;;;;5075061;28;20017;-86
2022/07/30 10:51:51;;;;;;;3.20;1.92;;;25.50;51.30;;;;;;5074218;28;20052;-86
2022/07/30 10:54:32;;;;;;;3.97;1.92;;;25.00;51.70;;;;;;5073508;28;20032;-87
2022/07/30 10:57:08;;;;;;;1.90;1.80;;;24.90;53.40;;;;;;5073872;28;20021;-88
2022/07/30 10:59:49;;;;;;;1.73;1.63;;;25.20;53.40;;;;;;5075329;28;20009;-86
2022/07/30 11:02:16;;;;;;;3.47;1.80;;;25.50;53.60;;;;;;5070218;28;20025;-85
2022/07/30 11:04:42;;;;;;;3.50;2.13;;;25.90;51.00;;;;;;5072092;28;20025;-87
2022/07/30 11:07:23;;;;;;;3.85;1.95;;;25.80;50.30;;;;;;5070174;28;20048;-86
2022/07/30 11:09:51;;;;;;;4.35;2.20;;;25.40;51.50;;;;;;5070812;28;20035;-86
2022/07/30 11:12:46;;;;;;;2.55;1.50;;;25.50;51.70;;;;;;5071791;28;20068;-86
2022/07/30 11:15:15;;;;;;;2.85;1.73;;;25.80;48.90;;;;;;5073144;28;20040;-87
2022/07/30 11:18:03;;;;;;;1.70;1.58;;;25.90;49.90;;;;;;5073924;28;20025;-87
2022/07/30 11:20:34;;;;;;;1.88;1.55;;;25.40;51.10;;;;;;5074516;28;20013;-86
2022/07/30 11:23:32;;;;;;;1.80;1.50;;;25.00;51.50;;;;;;5074125;28;20056;-84
2022/07/30 11:25:57;;;;;;;4.63;2.08;;;25.00;52.30;;;;;;5065903;28;20048;-84
2022/07/30 11:28:37;;;;;;;2.08;1.48;;;25.60;51.00;;;;;;5074899;28;20010;-86
2022/07/30 11:31:23;;;;;;;1.52;1.42;;;26.20;50.80;;;;;;5074143;28;20101;-85
2022/07/30 11:33:49;;;;;;;5.55;2.28;;;26.70;49.80;;;;;;5074964;28;20028;-85
2022/07/30 11:36:15;;;;;;;2.15;1.58;;;27.30;48.70;;;;;;5074642;28;20081;-85
2022/07/30 11:38:58;;;;;;;3.72;2.10;;;27.50;48.00;;;;;;5073810;28;20021;-85
2022/07/30 11:41:24;;;;;;;3.25;1.75;;;27.30;48.60;;;;;;5074510;28;20024;-84
2022/07/30 11:44:25;;;;;;;2.85;1.75;;;27.10;48.90;;;;;;5069505;28;20071;-85
2022/07/30 11:46:51;;;;;;;3.97;2.50;;;27.00;48.80;;;;;;5062484;28;20029;-85
2022/07/30 11:49:17;;;;;;;2.97;2.15;;;27.20;47.40;;;;;;5060683;28;20025;-85
2022/07/30 11:51:45;;;;;;;2.65;1.75;;;27.00;48.50;;;;;;5063739;28;20100;-85
2022/07/30 11:54:11;;;;;;;2.28;1.65;;;27.10;48.70;;;;;;5064021;28;20029;-85
2022/07/30 11:56:53;;;;;;;6.07;1.98;;;27.20;48.50;;;;;;5065295;28;20025;-85
2022/07/30 11:59:19;;;;;;;2.72;1.75;;;26.80;48.40;;;;;;5063798;28;20021;-85
2022/07/30 12:01:50;;;;;;;4.10;1.98;;;26.10;49.80;;;;;;5068344;28;20063;-85
2022/07/30 12:04:15;;;;;;;2.60;2.05;;;25.40;51.30;;;;;;5067695;28;20036;-85
2022/07/30 12:06:48;;;;;;;1.90;1.60;;;24.90;52.90;;;;;;5066371;28;20124;-84
2022/07/30 12:09:27;;;;;;;2.22;1.48;;;25.10;52.50;;;;;;5064032;28;20059;-85
2022/07/30 12:11:53;;;;;;;1.77;1.40;;;25.60;51.50;;;;;;5061128;28;20416;-85
2022/07/30 12:14:19;;;;;;;3.75;1.83;;;26.20;48.90;;;;;;5065204;28;20047;-84
2022/07/30 12:16:49;;;;;;;1.85;1.73;;;26.00;48.60;;;;;;5064992;28;20406;-85
2022/07/30 12:19:15;;;;;;;1.77;1.48;;;25.80;48.70;;;;;;5062732;28;20051;-84
2022/07/30 12:21:41;;;;;;;2.95;1.60;;;26.00;48.80;;;;;;5063882;28;20029;-84
2022/07/30 12:24:08;;;;;;;2.20;1.50;;;26.20;47.80;;;;;;5062179;28;20092;-85
2022/07/30 12:26:34;;;;;;;2.53;1.33;;;26.50;47.70;;;;;;5063802;28;20222;-85
2022/07/30 12:29:06;;;;;;;1.67;1.58;;;26.90;46.60;;;;;;5064006;28;20021;-85
2022/07/30 12:31:35;;;;;;;3.47;1.98;;;27.40;45.90;;;;;;5064970;28;20017;-85
2022/07/30 12:34:01;;;;;;;2.95;1.92;;;27.70;44.70;;;;;;5063808;28;20055;-84
2022/07/30 12:36:34;;;;;;;2.25;1.40;;;27.90;43.80;;;;;;5061699;28;20033;-83
2022/07/30 12:39:02;;;;;;;5.50;1.63;;;27.90;44.60;;;;;;5064015;28;20033;-85
2022/07/30 12:41:43;;;;;;;2.13;1.10;;;28.10;43.70;;;;;;5069150;28;20026;-84
2022/07/30 12:44:09;;;;;;;2.50;1.20;;;28.20;43.50;;;;;;5077003;28;20013;-84
2022/07/30 12:46:42;;;;;;;2.78;1.20;;;28.30;43.30;;;;;;5069199;28;20182;-86
2022/07/30 12:49:08;;;;;;;2.20;1.30;;;27.90;42.50;;;;;;5077182;28;20029;-86
2022/07/30 12:51:36;;;;;;;2.38;1.23;;;27.50;44.00;;;;;;5077773;28;20084;-88
2022/07/30 12:54:16;;;;;;;6.07;1.55;;;27.40;44.10;;;;;;5077521;28;20017;-86
2022/07/30 12:57:01;;;;;;;5.40;1.40;;;27.40;43.60;;;;;;5078254;28;20009;-85